Time;durP1;ratioP1;P1;durP2;ratioP2;P2;SDS_P1;SDS_P2;PMS_P1;PMS_P2;Temp;Humidity;BMP_temperature;BMP_pressure;BME280_temperature;BME280_humidity;BME280_pressure;Samples;Min_cycle;Max_cycle;Signal;HPM_P1;HPM_P2
2021/05/13 00:01:33;;;;;;;4.10;3.17;;;12.20;99.90;;;;;;5055257;28;20191;-56
2021/05/13 00:04:08;;;;;;;3.95;3.08;;;12.20;99.90;;;;;;5068325;28;20198;-55
2021/05/13 00:06:34;;;;;;;3.30;2.78;;;12.30;99.90;;;;;;5071716;28;20306;-52
2021/05/13 00:09:04;;;;;;;3.50;3.20;;;12.50;99.90;;;;;;5060141;28;20217;-52
2021/05/13 00:11:32;;;;;;;3.35;3.00;;;12.40;99.90;;;;;;5068227;28;20185;-53
2021/05/13 00:14:05;;;;;;;3.90;3.20;;;12.50;99.90;;;;;;5069217;28;20266;-53
2021/05/13 00:16:34;;;;;;;4.03;3.63;;;12.30;99.90;;;;;;5067650;28;20197;-53
2021/05/13 00:19:07;;;;;;;4.63;3.88;;;12.40;99.90;;;;;;5066824;28;20215;-52
2021/05/13 00:21:38;;;;;;;4.90;3.17;;;12.20;99.90;;;;;;5067723;28;20189;-53
2021/05/13 00:24:06;;;;;;;5.65;4.10;;;12.20;99.90;;;;;;5071080;28;20212;-54
2021/05/13 00:26:39;;;;;;;3.63;3.10;;;12.40;99.90;;;;;;5067583;28;20193;-53
2021/05/13 00:29:21;;;;;;;3.78;3.47;;;12.30;99.90;;;;;;5067067;28;20213;-55
2021/05/13 00:31:52;;;;;;;5.00;3.67;;;12.40;99.90;;;;;;5063259;28;20222;-52
2021/05/13 00:34:23;;;;;;;4.55;3.60;;;12.30;99.90;;;;;;5071051;28;20209;-55
2021/05/13 00:36:52;;;;;;;5.20;3.60;;;12.20;99.90;;;;;;5071069;28;20212;-51
2021/05/13 00:39:35;;;;;;;4.25;3.70;;;12.30;99.90;;;;;;5071125;28;20194;-54
2021/05/13 00:42:09;;;;;;;5.70;3.90;;;12.20;99.90;;;;;;5070338;28;20200;-52
2021/05/13 00:44:59;;;;;;;6.45;4.25;;;12.40;99.90;;;;;;5071148;28;20208;-51
2021/05/13 00:47:34;;;;;;;3.78;3.47;;;12.10;99.90;;;;;;5064992;28;20186;-53
2021/05/13 00:50:16;;;;;;;5.78;3.60;;;12.10;99.90;;;;;;5067783;28;20196;-53
2021/05/13 00:52:42;;;;;;;3.63;3.30;;;12.20;99.90;;;;;;5066015;28;20181;-53
2021/05/13 00:55:10;;;;;;;4.20;3.80;;;12.40;99.90;;;;;;5070564;28;20196;-54
2021/05/13 00:57:36;;;;;;;4.57;3.22;;;12.40;99.90;;;;;;5071003;28;20185;-52
2021/05/13 01:00:29;;;;;;;4.82;3.00;;;12.50;99.90;;;;;;5070841;28;20189;-53
2021/05/13 01:02:56;;;;;;;4.55;3.58;;;12.50;99.90;;;;;;5066911;28;20180;-57
2021/05/13 01:05:23;;;;;;;3.80;3.45;;;12.10;99.90;;;;;;5070717;28;20181;-55
2021/05/13 01:07:49;;;;;;;6.32;3.65;;;12.20;99.90;;;;;;5072120;28;20182;-53
2021/05/13 01:10:15;;;;;;;5.50;4.00;;;12.10;99.90;;;;;;5071774;28;20191;-53
2021/05/13 01:12:42;;;;;;;3.22;3.03;;;12.00;99.90;;;;;;5070629;28;20744;-52
2021/05/13 01:15:25;;;;;;;3.60;3.30;;;12.20;99.90;;;;;;5071135;28;20200;-53
2021/05/13 01:20:26;;;;;;;3.67;3.35;;;12.20;99.90;;;;;;5071184;28;20186;-53
2021/05/13 01:22:55;;;;;;;6.78;3.60;;;12.30;99.90;;;;;;5070557;28;20178;-54
2021/05/13 01:25:31;;;;;;;3.85;3.42;;;12.10;99.90;;;;;;5070310;28;20534;-54
2021/05/13 01:27:59;;;;;;;4.72;3.88;;;12.20;99.90;;;;;;5067963;28;20644;-52
2021/05/13 01:30:25;;;;;;;5.20;3.65;;;12.20;99.90;;;;;;5070206;28;20466;-55
2021/05/13 01:33:01;;;;;;;4.07;3.75;;;12.20;99.90;;;;;;5073186;28;20675;-54
2021/05/13 01:35:32;;;;;;;3.70;3.40;;;12.30;99.90;;;;;;5069671;28;20333;-54
2021/05/13 01:38:12;;;;;;;4.00;2.83;;;12.30;99.90;;;;;;5071035;28;20189;-54
2021/05/13 01:40:41;;;;;;;3.72;3.30;;;12.40;99.90;;;;;;5069924;28;20197;-54
2021/05/13 01:43:10;;;;;;;3.67;2.92;;;12.30;99.90;;;;;;5069748;28;20206;-52
2021/05/13 01:45:36;;;;;;;3.17;2.97;;;12.20;99.90;;;;;;5069827;28;20185;-52
2021/05/13 01:48:07;;;;;;;3.63;3.33;;;12.20;99.90;;;;;;5070334;28;20243;-53
2021/05/13 01:50:37;;;;;;;4.05;3.10;;;12.40;99.90;;;;;;5073457;28;20473;-54
2021/05/13 01:53:06;;;;;;;3.60;3.30;;;12.30;99.90;;;;;;5065120;28;20210;-52
2021/05/13 01:55:39;;;;;;;5.75;3.20;;;12.30;99.90;;;;;;5069467;28;20212;-52
2021/05/13 01:58:05;;;;;;;3.53;3.22;;;12.30;99.90;;;;;;5069579;28;20239;-53
2021/05/13 02:00:32;;;;;;;5.03;3.70;;;12.30;99.90;;;;;;5069367;28;20177;-54
2021/05/13 02:03:00;;;;;;;3.65;3.30;;;12.50;99.90;;;;;;5069590;28;20245;-54
2021/05/13 02:05:32;;;;;;;4.35;3.25;;;12.30;99.90;;;;;;5074393;28;20188;-53
2021/05/13 02:08:00;;;;;;;5.38;3.45;;;12.20;99.90;;;;;;5073345;28;20218;-55
2021/05/13 02:10:29;;;;;;;4.78;3.30;;;12.30;99.90;;;;;;5069803;28;20563;-53
2021/05/13 02:13:00;;;;;;;3.53;3.22;;;12.30;99.90;;;;;;5067178;28;20268;-53
2021/05/13 02:15:29;;;;;;;3.28;2.95;;;12.30;99.90;;;;;;5069204;28;20320;-54
2021/05/13 02:17:58;;;;;;;4.05;2.95;;;12.10;99.90;;;;;;5067006;28;20542;-53
2021/05/13 02:20:32;;;;;;;3.70;3.20;;;12.30;99.90;;;;;;5069157;28;20535;-55
2021/05/13 02:23:06;;;;;;;6.32;3.95;;;12.00;99.90;;;;;;5069848;28;20527;-53
2021/05/13 02:25:32;;;;;;;5.70;3.47;;;12.10;99.90;;;;;;5069489;28;20618;-51
2021/05/13 02:28:02;;;;;;;4.72;3.80;;;12.00;99.90;;;;;;5069445;28;20193;-55
2021/05/13 02:30:29;;;;;;;3.70;3.30;;;12.00;99.90;;;;;;5068509;28;20335;-54
2021/05/13 02:33:00;;;;;;;6.28;3.53;;;12.00;99.90;;;;;;5068364;28;20574;-55
2021/05/13 02:35:28;;;;;;;3.85;3.38;;;12.10;99.90;;;;;;5069043;28;20224;-52
2021/05/13 02:37:54;;;;;;;4.47;3.58;;;12.00;99.90;;;;;;5070197;28;20177;-52
2021/05/13 02:40:25;;;;;;;8.00;3.70;;;12.00;99.90;;;;;;5069419;28;20566;-52
2021/05/13 02:42:51;;;;;;;5.63;3.78;;;11.90;99.90;;;;;;5068598;28;20832;-55
2021/05/13 02:45:17;;;;;;;4.70;3.90;;;11.60;99.90;;;;;;5068586;28;20262;-53
2021/05/13 02:47:46;;;;;;;4.32;4.03;;;11.90;99.90;;;;;;5069073;28;20354;-52
2021/05/13 02:50:15;;;;;;;4.75;3.90;;;11.60;99.90;;;;;;5065841;28;20488;-51
2021/05/13 02:52:44;;;;;;;4.75;4.13;;;11.60;99.90;;;;;;5064265;28;20236;-54
2021/05/13 02:55:11;;;;;;;4.78;3.70;;;11.50;99.90;;;;;;5066157;28;20650;-54
2021/05/13 02:57:40;;;;;;;4.78;3.78;;;11.70;99.90;;;;;;5069303;28;20375;-52
2021/05/13 03:00:22;;;;;;;4.78;3.60;;;11.70;99.90;;;;;;5068378;28;20182;-54
2021/05/13 03:02:54;;;;;;;4.85;3.90;;;11.60;99.90;;;;;;5069809;28;20658;-54
2021/05/13 03:05:25;;;;;;;7.22;6.53;;;11.60;99.90;;;;;;5069386;28;20182;-54
2021/05/13 03:07:59;;;;;;;4.43;4.03;;;11.50;99.90;;;;;;5065665;28;20770;-53
2021/05/13 03:11:00;;;;;;;3.85;3.55;;;11.60;99.90;;;;;;5060085;28;20189;-52
2021/05/13 03:13:26;;;;;;;3.60;3.30;;;11.40;99.90;;;;;;5067079;28;20210;-54
2021/05/13 03:15:55;;;;;;;7.20;3.90;;;11.40;99.90;;;;;;5062797;28;20198;-52
2021/05/13 03:18:24;;;;;;;4.22;3.88;;;11.90;99.90;;;;;;5056668;28;20199;-51
2021/05/13 03:20:58;;;;;;;4.38;3.97;;;11.70;99.90;;;;;;5068827;28;20583;-54
2021/05/13 03:23:29;;;;;;;3.72;3.42;;;11.30;99.90;;;;;;5068369;28;20208;-52
2021/05/13 03:26:01;;;;;;;4.60;4.20;;;11.70;99.90;;;;;;5068356;28;20224;-53
2021/05/13 03:28:29;;;;;;;4.53;4.13;;;11.50;99.90;;;;;;5067818;28;20185;-57
2021/05/13 03:30:55;;;;;;;4.45;4.05;;;11.80;99.90;;;;;;5068415;28;20634;-52
2021/05/13 03:33:21;;;;;;;4.45;4.15;;;11.70;99.90;;;;;;5068428;28;20217;-54
2021/05/13 03:35:47;;;;;;;4.80;3.83;;;11.80;99.90;;;;;;5067908;28;20205;-54
2021/05/13 03:38:15;;;;;;;3.70;3.40;;;11.70;99.90;;;;;;5067452;28;20443;-54
2021/05/13 03:40:44;;;;;;;5.20;3.55;;;11.70;99.90;;;;;;5067456;28;20474;-55
2021/05/13 03:43:10;;;;;;;4.53;4.13;;;11.80;99.90;;;;;;5067826;28;20452;-53
2021/05/13 03:45:42;;;;;;;5.55;3.60;;;11.80;99.90;;;;;;5068410;28;20194;-54
2021/05/13 03:48:09;;;;;;;5.38;4.20;;;11.80;99.90;;;;;;5068544;28;20192;-53
2021/05/13 03:50:37;;;;;;;4.20;3.80;;;11.50;99.90;;;;;;5063205;28;20189;-52
2021/05/13 03:53:05;;;;;;;4.30;3.80;;;11.50;99.90;;;;;;5073113;28;20200;-54
2021/05/13 03:55:35;;;;;;;4.45;4.05;;;11.60;99.90;;;;;;5067900;28;20250;-54
2021/05/13 03:58:10;;;;;;;5.18;4.28;;;11.70;99.90;;;;;;5068445;28;20185;-53
2021/05/13 04:00:44;;;;;;;4.18;3.53;;;11.60;99.90;;;;;;5058109;28;20263;-51
2021/05/13 04:03:13;;;;;;;4.97;4.50;;;11.40;99.90;;;;;;5085140;28;20223;-52
2021/05/13 04:05:39;;;;;;;4.97;4.47;;;11.50;99.90;;;;;;5066216;28;20265;-54
2021/05/13 04:08:09;;;;;;;4.72;4.32;;;11.30;99.90;;;;;;5059215;28;20685;-52
2021/05/13 04:10:37;;;;;;;4.72;4.32;;;11.10;99.90;;;;;;5059064;28;20185;-51
2021/05/13 04:13:08;;;;;;;5.88;4.00;;;11.30;99.90;;;;;;5065498;28;20323;-52
2021/05/13 04:15:37;;;;;;;4.22;3.83;;;11.20;99.90;;;;;;5065867;28;20205;-50
2021/05/13 04:18:05;;;;;;;4.38;3.97;;;11.40;99.90;;;;;;5065075;28;20669;-51
2021/05/13 04:20:31;;;;;;;5.00;4.05;;;11.40;99.90;;;;;;5063729;28;20185;-51
2021/05/13 04:22:57;;;;;;;6.23;4.23;;;11.50;99.90;;;;;;5062177;28;20552;-50
2021/05/13 04:25:28;;;;;;;4.30;3.90;;;11.50;99.90;;;;;;5062703;28;20943;-51
2021/05/13 04:27:54;;;;;;;4.60;4.07;;;11.40;99.90;;;;;;5063688;28;20439;-50
2021/05/13 04:30:21;;;;;;;4.03;3.70;;;11.70;99.90;;;;;;5066048;28;20272;-52
2021/05/13 04:32:47;;;;;;;4.45;4.05;;;11.50;99.90;;;;;;5071530;28;20458;-52
2021/05/13 04:35:15;;;;;;;4.40;4.00;;;11.50;99.90;;;;;;5067812;28;20177;-53
2021/05/13 04:37:41;;;;;;;5.30;4.72;;;11.70;99.90;;;;;;5060156;28;20188;-52
2021/05/13 04:40:07;;;;;;;4.90;4.40;;;11.50;99.90;;;;;;5063869;28;20184;-51
2021/05/13 04:42:35;;;;;;;4.20;3.90;;;11.60;99.90;;;;;;5065022;28;20859;-52
2021/05/13 04:45:05;;;;;;;4.88;4.00;;;11.70;99.90;;;;;;5065794;28;20737;-51
2021/05/13 04:50:17;;;;;;;5.85;3.63;;;11.70;99.90;;;;;;5062258;28;20182;-52
2021/05/13 04:52:43;;;;;;;4.80;4.30;;;11.80;99.90;;;;;;5063292;28;20208;-52
2021/05/13 04:55:12;;;;;;;5.00;4.33;;;12.00;99.90;;;;;;5063423;28;20223;-52
2021/05/13 04:57:38;;;;;;;7.35;4.38;;;11.70;99.90;;;;;;5063772;28;20185;-53
2021/05/13 05:00:06;;;;;;;5.25;4.63;;;11.80;99.90;;;;;;5063139;28;20182;-51
2021/05/13 05:02:32;;;;;;;5.25;3.92;;;11.70;99.90;;;;;;5061112;28;20249;-51
2021/05/13 05:05:09;;;;;;;4.50;4.10;;;12.00;99.90;;;;;;5063080;28;20691;-51
2021/05/13 05:07:38;;;;;;;4.43;4.03;;;11.80;99.90;;;;;;5067337;28;20188;-52
2021/05/13 05:10:07;;;;;;;4.70;4.30;;;12.20;99.90;;;;;;5064438;28;20228;-53
2021/05/13 05:12:33;;;;;;;4.30;3.90;;;12.00;99.90;;;;;;5066103;28;20284;-53
2021/05/13 05:14:59;;;;;;;6.93;5.07;;;12.40;99.90;;;;;;5061129;28;20286;-51
2021/05/13 05:17:25;;;;;;;5.10;4.60;;;12.20;99.90;;;;;;5059842;28;20476;-54
2021/05/13 05:19:53;;;;;;;5.17;4.13;;;12.10;99.90;;;;;;5065216;28;20432;-53
2021/05/13 05:22:18;;;;;;;8.40;5.20;;;12.10;99.90;;;;;;5068147;28;20186;-53
2021/05/13 05:24:47;;;;;;;5.80;5.20;;;11.80;99.90;;;;;;5066013;28;20267;-53
2021/05/13 05:27:13;;;;;;;5.35;4.82;;;11.80;99.90;;;;;;5068028;28;20445;-53
2021/05/13 05:29:42;;;;;;;5.55;4.55;;;12.20;99.90;;;;;;5046857;28;20319;-53
2021/05/13 05:32:10;;;;;;;5.60;4.32;;;11.90;99.90;;;;;;5065627;28;20227;-54
2021/05/13 05:34:42;;;;;;;4.95;4.55;;;12.00;99.90;;;;;;5062564;28;20730;-55
2021/05/13 05:37:16;;;;;;;4.40;4.00;;;12.10;99.90;;;;;;5068876;28;20205;-55
2021/05/13 05:39:42;;;;;;;6.07;4.70;;;12.30;99.90;;;;;;5066140;28;20177;-54
2021/05/13 05:42:13;;;;;;;5.23;4.23;;;12.80;99.90;;;;;;5064261;28;20579;-54
2021/05/13 05:44:41;;;;;;;7.60;4.88;;;12.60;99.90;;;;;;5068086;28;20201;-55
2021/05/13 05:47:09;;;;;;;4.60;4.20;;;12.50;99.90;;;;;;5062281;28;20824;-55
2021/05/13 05:49:54;;;;;;;4.60;4.00;;;12.80;99.90;;;;;;5067613;28;20183;-55
2021/05/13 05:52:23;;;;;;;4.38;4.03;;;13.10;99.90;;;;;;5064682;28;20197;-55
2021/05/13 05:54:51;;;;;;;5.93;4.38;;;13.30;99.90;;;;;;5060379;28;20203;-55
2021/05/13 05:57:17;;;;;;;4.40;3.65;;;13.20;99.90;;;;;;5066180;28;20201;-53
2021/05/13 05:59:43;;;;;;;5.00;4.40;;;13.20;99.90;;;;;;5064522;28;20182;-53
2021/05/13 06:02:09;;;;;;;6.53;5.00;;;13.30;99.90;;;;;;5062825;28;20435;-53
2021/05/13 06:04:37;;;;;;;4.17;3.77;;;13.60;99.90;;;;;;5069731;28;20980;-53
2021/05/13 06:07:09;;;;;;;4.50;3.80;;;13.60;99.90;;;;;;5065904;28;20467;-52
2021/05/13 06:09:37;;;;;;;4.75;4.25;;;13.90;99.90;;;;;;5068766;28;20191;-53
2021/05/13 06:12:07;;;;;;;5.75;4.05;;;13.90;99.90;;;;;;5069368;28;20202;-55
2021/05/13 06:14:35;;;;;;;5.22;4.30;;;13.90;99.90;;;;;;5070168;28;20211;-54
2021/05/13 06:17:09;;;;;;;4.72;4.22;;;13.90;99.90;;;;;;5066893;28;20257;-53
2021/05/13 06:19:38;;;;;;;4.55;4.15;;;13.80;99.90;;;;;;5065599;28;20211;-53
2021/05/13 06:22:04;;;;;;;4.60;4.25;;;14.00;99.90;;;;;;5068092;28;20196;-53
2021/05/13 06:24:32;;;;;;;4.30;4.00;;;14.30;99.90;;;;;;5069336;28;20212;-53
2021/05/13 06:27:07;;;;;;;4.80;4.00;;;14.40;99.90;;;;;;5070430;28;20183;-53
2021/05/13 06:29:35;;;;;;;6.32;4.22;;;14.30;99.90;;;;;;5061121;28;20195;-53
2021/05/13 06:32:04;;;;;;;3.67;3.38;;;14.20;99.90;;;;;;5053679;28;20199;-53
2021/05/13 06:34:30;;;;;;;4.40;4.00;;;14.40;99.90;;;;;;5064850;28;20208;-53
2021/05/13 06:36:56;;;;;;;4.00;3.40;;;14.50;99.90;;;;;;5063262;28;20713;-53
2021/05/13 06:39:23;;;;;;;4.80;3.90;;;14.60;99.90;;;;;;5065557;28;20481;-53
2021/05/13 06:41:49;;;;;;;4.22;3.70;;;14.90;99.90;;;;;;5068329;28;20177;-52
2021/05/13 06:44:19;;;;;;;3.40;3.00;;;15.40;99.90;;;;;;5066794;28;20258;-54
2021/05/13 06:46:45;;;;;;;3.03;2.83;;;16.20;99.60;;;;;;5068255;28;20642;-53
2021/05/13 06:49:14;;;;;;;3.93;3.23;;;17.30;97.60;;;;;;5065876;28;20252;-54
2021/05/13 06:51:43;;;;;;;4.68;3.22;;;18.50;94.40;;;;;;5070404;28;20191;-53
2021/05/13 06:54:14;;;;;;;3.20;2.72;;;19.40;92.20;;;;;;5068819;28;20200;-53
2021/05/13 06:56:42;;;;;;;4.03;2.45;;;19.50;90.10;;;;;;5066064;28;20581;-54
2021/05/13 06:59:08;;;;;;;2.53;2.20;;;19.90;86.50;;;;;;5068261;28;20196;-53
2021/05/13 07:01:42;;;;;;;2.60;2.37;;;20.40;84.60;;;;;;5067292;28;20185;-51
2021/05/13 07:04:10;;;;;;;4.33;2.57;;;21.90;80.60;;;;;;5063882;28;20451;-52
2021/05/13 07:06:42;;;;;;;2.57;2.20;;;24.20;72.00;;;;;;5063061;28;20447;-53
2021/05/13 07:09:13;;;;;;;4.90;2.63;;;26.10;63.20;;;;;;5065044;28;20491;-51
2021/05/13 07:11:44;;;;;;;2.50;2.23;;;25.10;62.40;;;;;;5066133;28;20516;-53
2021/05/13 07:14:11;;;;;;;3.70;2.53;;;26.00;59.40;;;;;;5067745;28;20523;-53
2021/05/13 07:16:57;;;;;;;3.20;2.90;;;25.90;58.70;;;;;;5069197;28;20502;-52
2021/05/13 07:19:36;;;;;;;;;;;;;;;;;;;;;
2021/05/13 07:22:07;;;;;;;2.23;2.13;;;28.50;52.30;;;;;;5059179;28;20470;-55
2021/05/13 07:24:33;;;;;;;3.03;2.20;;;29.60;49.30;;;;;;5060750;28;20599;-53
2021/05/13 07:27:06;;;;;;;3.03;2.50;;;30.00;48.10;;;;;;5060534;28;20457;-53
2021/05/13 07:29:35;;;;;;;5.30;4.00;;;31.40;46.10;;;;;;5058417;28;20650;-54
2021/05/13 07:32:01;;;;;;;2.43;2.23;;;31.00;45.30;;;;;;5059801;28;21044;-55
2021/05/13 07:34:29;;;;;;;4.27;2.23;;;33.20;43.40;;;;;;5059237;28;20497;-53
2021/05/13 07:36:58;;;;;;;3.03;2.30;;;34.80;40.10;;;;;;5065839;28;20244;-54
2021/05/13 07:39:24;;;;;;;2.73;2.20;;;32.70;40.30;;;;;;5068588;28;20831;-54
2021/05/13 07:41:52;;;;;;;3.27;2.30;;;34.10;39.60;;;;;;5065721;28;20870;-54
2021/05/13 07:44:18;;;;;;;2.67;2.43;;;35.30;36.60;;;;;;5068728;28;20462;-53
2021/05/13 07:46:44;;;;;;;2.00;1.90;;;35.10;35.70;;;;;;5068171;28;20443;-52
2021/05/13 07:49:10;;;;;;;2.43;2.00;;;33.90;36.80;;;;;;5067156;28;20212;-53
2021/05/13 07:51:43;;;;;;;3.80;2.47;;;34.40;36.10;;;;;;5065795;28;20439;-53
2021/05/13 07:54:15;;;;;;;4.80;2.23;;;33.60;36.50;;;;;;5064589;28;20995;-53
2021/05/13 07:56:42;;;;;;;3.50;2.30;;;34.20;36.70;;;;;;5065454;28;20455;-54
2021/05/13 07:59:12;;;;;;;2.80;2.50;;;34.70;36.30;;;;;;5065502;28;20454;-54
2021/05/13 08:01:40;;;;;;;2.50;2.20;;;33.90;35.60;;;;;;5064612;28;20525;-53
2021/05/13 08:04:14;;;;;;;2.43;2.00;;;32.30;38.20;;;;;;5071078;28;20555;-53
2021/05/13 08:06:50;;;;;;;3.30;2.60;;;32.70;37.80;;;;;;5064774;28;20446;-53
2021/05/13 08:09:21;;;;;;;4.10;3.30;;;29.70;39.90;;;;;;5066231;28;20503;-53
2021/05/13 08:11:48;;;;;;;4.80;3.80;;;28.40;42.80;;;;;;5066770;28;20526;-53
2021/05/13 08:14:14;;;;;;;2.10;2.00;;;27.80;44.10;;;;;;5062366;28;21021;-52
2021/05/13 08:16:40;;;;;;;2.30;2.10;;;26.20;46.20;;;;;;5068078;28;20482;-52
2021/05/13 08:19:07;;;;;;;2.50;2.20;;;25.20;48.70;;;;;;5058956;28;20440;-52
2021/05/13 08:21:40;;;;;;;3.30;2.73;;;25.20;49.40;;;;;;5068905;28;20464;-53
2021/05/13 08:24:11;;;;;;;3.50;2.50;;;24.80;49.70;;;;;;5063839;28;20458;-53
2021/05/13 08:26:39;;;;;;;4.13;2.30;;;23.30;52.30;;;;;;5066272;28;20533;-52
2021/05/13 08:29:05;;;;;;;5.30;2.70;;;23.10;53.00;;;;;;5064349;28;20681;-52
2021/05/13 08:31:33;;;;;;;5.27;2.30;;;22.20;55.50;;;;;;5066606;28;20303;-52
2021/05/13 08:33:58;;;;;;;3.80;2.40;;;22.00;56.50;;;;;;5068013;28;20489;-54
2021/05/13 08:36:31;;;;;;;2.30;2.10;;;22.10;56.00;;;;;;5067702;28;20470;-53
2021/05/13 08:38:57;;;;;;;2.00;1.90;;;23.90;53.90;;;;;;5063238;28;20181;-53
2021/05/13 08:41:27;;;;;;;3.07;2.50;;;24.30;51.50;;;;;;5066562;28;20530;-53
2021/05/13 08:43:57;;;;;;;2.70;1.90;;;24.20;51.50;;;;;;5066715;28;20608;-53
2021/05/13 08:46:23;;;;;;;5.10;2.40;;;23.80;52.00;;;;;;5066646;28;20434;-53
2021/05/13 08:48:52;;;;;;;3.00;2.13;;;22.50;53.40;;;;;;5063137;28;20268;-52
2021/05/13 08:51:19;;;;;;;3.08;2.58;;;22.10;55.20;;;;;;5064028;28;20435;-54
2021/05/13 08:53:56;;;;;;;2.17;2.00;;;21.70;55.50;;;;;;5066722;28;20621;-54
2021/05/13 08:56:25;;;;;;;2.10;2.00;;;20.60;57.00;;;;;;5068162;28;20210;-53
2021/05/13 08:59:05;;;;;;;2.80;2.33;;;19.70;59.10;;;;;;5069086;28;20247;-53
2021/05/13 09:01:33;;;;;;;3.83;2.55;;;19.20;62.50;;;;;;5052988;28;20666;-54
2021/05/13 09:04:01;;;;;;;5.80;2.35;;;19.10;64.70;;;;;;5080916;28;20212;-54
2021/05/13 09:06:41;;;;;;;4.97;2.80;;;19.00;65.20;;;;;;5065646;28;20569;-53
2021/05/13 09:09:17;;;;;;;4.57;2.80;;;19.00;65.50;;;;;;5069236;28;20191;-54
2021/05/13 09:11:46;;;;;;;3.35;2.45;;;19.20;66.50;;;;;;5063105;28;20212;-53
2021/05/13 09:14:27;;;;;;;3.38;2.58;;;20.60;63.60;;;;;;5065811;28;20284;-52
2021/05/13 09:17:23;;;;;;;2.50;2.30;;;22.20;58.60;;;;;;5066354;28;22269;-53
2021/05/13 09:19:55;;;;;;;2.90;2.40;;;24.80;53.50;;;;;;5069341;28;20435;-52
2021/05/13 09:22:34;;;;;;;5.83;2.80;;;24.10;52.40;;;;;;5070957;28;20441;-53
2021/05/13 09:25:07;;;;;;;3.95;2.97;;;22.40;53.80;;;;;;5058586;28;20592;-52
2021/05/13 09:27:42;;;;;;;5.78;2.75;;;21.00;57.50;;;;;;5064153;28;20187;-52
2021/05/13 09:30:23;;;;;;;2.75;2.55;;;20.60;60.20;;;;;;5083139;28;20193;-53
2021/05/13 09:33:00;;;;;;;2.60;2.35;;;20.70;59.60;;;;;;5066811;28;20199;-52
2021/05/13 09:35:28;;;;;;;4.35;2.50;;;20.20;61.40;;;;;;5061359;28;20284;-53
2021/05/13 09:37:55;;;;;;;2.15;2.05;;;19.60;62.50;;;;;;5068718;28;20188;-52
2021/05/13 09:40:35;;;;;;;2.55;2.35;;;19.50;63.70;;;;;;5068303;28;20183;-52
2021/05/13 09:43:28;;;;;;;2.22;2.03;;;19.70;62.90;;;;;;5071244;28;20181;-52
2021/05/13 09:45:56;;;;;;;2.03;1.70;;;19.80;63.70;;;;;;5069471;28;20308;-52
2021/05/13 09:48:43;;;;;;;3.60;2.08;;;19.80;61.70;;;;;;5061763;28;20189;-53
2021/05/13 09:51:28;;;;;;;3.78;2.00;;;19.70;61.50;;;;;;5068564;28;20194;-52
2021/05/13 09:54:17;;;;;;;3.78;2.08;;;19.90;62.70;;;;;;5055953;28;20211;-52
2021/05/13 09:56:54;;;;;;;3.97;2.47;;;19.60;64.50;;;;;;5066619;28;20205;-52
2021/05/13 09:59:27;;;;;;;4.70;2.75;;;19.50;64.90;;;;;;5067304;28;20733;-52
2021/05/13 10:02:07;;;;;;;3.95;2.17;;;19.50;64.00;;;;;;5066468;28;20268;-52
2021/05/13 10:04:32;;;;;;;3.70;2.08;;;19.60;63.40;;;;;;5064277;28;20274;-52
2021/05/13 10:06:59;;;;;;;3.27;2.63;;;19.50;64.10;;;;;;5068310;28;20672;-53
2021/05/13 10:09:28;;;;;;;1.95;1.85;;;19.50;63.10;;;;;;5060317;28;20467;-53
2021/05/13 10:12:03;;;;;;;2.03;1.90;;;19.50;63.40;;;;;;5064753;28;20551;-52
2021/05/13 10:14:39;;;;;;;2.90;2.65;;;19.20;62.50;;;;;;5051880;28;20239;-54
2021/05/13 10:17:09;;;;;;;7.03;2.35;;;19.20;62.80;;;;;;5062845;28;20208;-52
2021/05/13 10:19:42;;;;;;;2.83;2.15;;;19.30;62.40;;;;;;5063030;28;20202;-53
2021/05/13 10:22:12;;;;;;;1.75;1.65;;;19.10;63.60;;;;;;5066229;28;20205;-53
2021/05/13 10:24:38;;;;;;;2.20;2.00;;;19.20;63.10;;;;;;5063145;28;20219;-53
2021/05/13 10:27:21;;;;;;;2.42;1.70;;;19.20;61.00;;;;;;5067170;28;20657;-53
2021/05/13 10:29:59;;;;;;;1.88;1.77;;;19.10;60.50;;;;;;5064484;28;20211;-53
2021/05/13 10:32:31;;;;;;;3.03;1.95;;;19.20;61.50;;;;;;5065025;28;20774;-53
2021/05/13 10:35:08;;;;;;;2.45;2.00;;;19.30;61.20;;;;;;5066712;28;20771;-53
2021/05/13 10:37:37;;;;;;;3.33;2.03;;;19.40;61.80;;;;;;5067463;28;20215;-54
2021/05/13 10:42:38;;;;;;;2.70;1.90;;;19.60;61.50;;;;;;5062619;28;20199;-53
2021/05/13 10:45:26;;;;;;;3.65;2.00;;;19.20;61.10;;;;;;5080338;28;20208;-53
2021/05/13 10:48:19;;;;;;;3.88;2.22;;;19.10;62.80;;;;;;5066474;28;20192;-53
2021/05/13 10:50:49;;;;;;;2.95;1.85;;;19.00;63.10;;;;;;5063646;28;20185;-53
2021/05/13 10:53:38;;;;;;;4.30;2.42;;;19.00;62.60;;;;;;5065686;28;20639;-53
2021/05/13 10:56:32;;;;;;;2.55;1.80;;;19.30;63.80;;;;;;5067651;28;20200;-52
2021/05/13 10:59:08;;;;;;;3.60;1.92;;;19.50;63.40;;;;;;5062450;28;20250;-53
2021/05/13 11:02:12;;;;;;;1.67;1.58;;;19.20;64.00;;;;;;5065873;28;20212;-53
2021/05/13 11:04:41;;;;;;;1.90;1.70;;;18.80;66.50;;;;;;5035845;28;20278;-53
2021/05/13 11:07:25;;;;;;;2.28;1.88;;;18.60;67.80;;;;;;5062026;28;20227;-53
2021/05/13 11:09:53;;;;;;;2.13;1.75;;;18.20;68.70;;;;;;5067314;28;20181;-52
2021/05/13 11:12:40;;;;;;;1.90;1.70;;;18.20;69.10;;;;;;5064977;28;20186;-53
2021/05/13 11:20:47;;;;;;;2.13;1.25;;;18.60;69.30;;;;;;5061221;28;20188;-53
2021/05/13 11:23:24;;;;;;;5.22;2.30;;;18.70;68.30;;;;;;5065278;28;20524;-53
2021/05/13 11:26:07;;;;;;;3.97;1.90;;;19.20;66.80;;;;;;5064748;28;20560;-52
2021/05/13 11:28:46;;;;;;;1.80;1.70;;;19.40;65.80;;;;;;5062971;28;20578;-53
2021/05/13 11:31:27;;;;;;;2.50;1.80;;;19.80;62.80;;;;;;5063631;28;20565;-53
2021/05/13 11:33:59;;;;;;;1.58;1.05;;;20.10;60.80;;;;;;5064928;28;20260;-53
2021/05/13 11:36:30;;;;;;;2.30;1.25;;;20.10;58.00;;;;;;5065244;28;20203;-53
2021/05/13 11:39:07;;;;;;;2.55;1.40;;;19.90;56.70;;;;;;5072297;28;20180;-53
2021/05/13 11:41:35;;;;;;;2.20;1.30;;;19.70;57.70;;;;;;5065720;28;20176;-52
2021/05/13 11:44:02;;;;;;;1.70;1.00;;;19.20;59.90;;;;;;5067882;28;20200;-51
2021/05/13 11:46:28;;;;;;;3.20;1.30;;;19.10;61.80;;;;;;5065648;28;20563;-52
2021/05/13 11:48:57;;;;;;;2.67;1.40;;;19.10;62.30;;;;;;5066699;28;20189;-52
2021/05/13 11:51:29;;;;;;;1.65;1.40;;;19.20;62.90;;;;;;5055286;28;20181;-52
2021/05/13 11:53:57;;;;;;;1.50;1.33;;;19.00;63.30;;;;;;5065973;28;20215;-52
2021/05/13 11:56:25;;;;;;;0.93;0.90;;;18.90;65.00;;;;;;5056638;28;20195;-50
2021/05/13 11:59:04;;;;;;;1.50;1.40;;;18.80;64.90;;;;;;5064831;28;20277;-53
2021/05/13 12:01:34;;;;;;;1.55;1.30;;;18.80;65.10;;;;;;5079736;28;20213;-53
2021/05/13 12:04:28;;;;;;;2.90;1.40;;;18.80;66.40;;;;;;5067665;28;20208;-52
2021/05/13 12:07:01;;;;;;;2.30;1.40;;;18.70;65.70;;;;;;5058530;28;20535;-53
2021/05/13 12:09:33;;;;;;;2.30;1.27;;;18.70;66.00;;;;;;5064088;28;20189;-54
2021/05/13 12:12:02;;;;;;;1.83;1.13;;;18.70;65.90;;;;;;5062701;28;20185;-53
2021/05/13 12:14:31;;;;;;;2.75;1.35;;;18.50;66.10;;;;;;5063523;28;20198;-51
2021/05/13 12:17:05;;;;;;;1.75;1.10;;;18.40;65.00;;;;;;5069724;28;20206;-54
2021/05/13 12:19:42;;;;;;;3.15;1.60;;;18.50;65.40;;;;;;5068669;28;20176;-53
2021/05/13 12:22:11;;;;;;;3.03;1.40;;;18.50;64.90;;;;;;5077080;28;20188;-53
2021/05/13 12:24:42;;;;;;;1.20;1.00;;;18.90;64.60;;;;;;5064788;28;20220;-53
2021/05/13 12:27:10;;;;;;;1.40;1.30;;;19.30;61.40;;;;;;5062569;28;20185;-53
2021/05/13 12:29:46;;;;;;;1.15;1.00;;;19.30;59.50;;;;;;5067220;28;20606;-51
2021/05/13 12:32:31;;;;;;;1.33;1.00;;;19.40;58.70;;;;;;5069195;28;20204;-50
2021/05/13 12:34:57;;;;;;;1.33;1.23;;;19.60;59.00;;;;;;5069673;28;20204;-52
2021/05/13 12:37:23;;;;;;;1.47;0.80;;;19.90;59.50;;;;;;5070623;28;20203;-52
2021/05/13 12:39:50;;;;;;;1.00;0.90;;;20.20;58.80;;;;;;5070830;28;20303;-53
2021/05/13 12:42:30;;;;;;;1.75;1.30;;;20.00;58.80;;;;;;5069817;28;20714;-52
2021/05/13 12:45:11;;;;;;;2.90;1.00;;;19.70;59.30;;;;;;5066034;28;20216;-51
2021/05/13 12:47:37;;;;;;;2.38;1.30;;;20.20;58.80;;;;;;5058889;28;20185;-51
2021/05/13 12:50:03;;;;;;;1.23;1.13;;;20.50;57.80;;;;;;5069229;28;20177;-50
2021/05/13 12:52:29;;;;;;;1.88;1.00;;;20.50;55.60;;;;;;5074643;28;20192;-51
2021/05/13 12:55:13;;;;;;;1.50;0.87;;;20.50;55.20;;;;;;5070016;28;20670;-51
2021/05/13 12:57:43;;;;;;;1.00;0.90;;;20.60;53.60;;;;;;5074431;28;20210;-51
2021/05/13 13:00:12;;;;;;;1.83;1.15;;;20.40;54.00;;;;;;5071127;28;20271;-51
2021/05/13 13:02:38;;;;;;;1.70;1.48;;;20.00;54.80;;;;;;5069831;28;20189;-52
2021/05/13 13:05:07;;;;;;;1.93;1.00;;;20.20;55.20;;;;;;5065688;28;20220;-52
2021/05/13 13:07:46;;;;;;;1.00;0.90;;;20.20;56.30;;;;;;5066852;28;20189;-51
2021/05/13 13:10:26;;;;;;;1.10;1.00;;;20.20;56.90;;;;;;5068535;28;20185;-51
2021/05/13 13:13:05;;;;;;;1.00;0.80;;;20.20;56.40;;;;;;5066193;28;20266;-52
2021/05/13 13:15:36;;;;;;;1.05;0.90;;;20.20;56.40;;;;;;5062340;28;20551;-51
2021/05/13 13:18:08;;;;;;;1.70;1.40;;;20.10;56.50;;;;;;5069888;28;20177;-51
2021/05/13 13:20:36;;;;;;;1.48;0.82;;;19.90;57.10;;;;;;5067746;28;20193;-52
2021/05/13 13:23:20;;;;;;;1.30;1.05;;;19.80;56.50;;;;;;5071492;28;20330;-51